Time,TemperatureF,DewpointF,PressureIn,WindDirection,WindDirectionDegrees,WindSpeedMPH,WindSpeedGustMPH,Humidity,HourlyPrecipIn,Conditions,Clouds,dailyrainin,SoftwareType,DateUTC
2013-10-21 00:00:00,46.0,46.0,29.85,NNW,338,0.0,4.0,100,0.00,,,-99.99,Weather View 32 v60,2013-10-21 05:00:00,
2013-10-21 00:29:00,48.0,43.4,29.16,WNW,292,17.0,33.0,84,0.00,,,-99.99,Weather View 32 v60,2013-10-21 05:29:00,
2013-10-21 00:30:00,45.0,45.0,29.86,NE,45,0.0,10.0,100,0.00,,,-99.99,Weather View 32 v60,2013-10-21 05:30:00,
2013-10-21 00:39:00,48.0,43.4,29.16,WNW,292,17.0,33.0,84,0.00,,,-99.99,Weather View 32 v60,2013-10-21 05:39:00,
2013-10-21 00:59:00,46.0,41.7,29.17,NW,315,8.0,26.0,85,0.00,,,-99.99,Weather View 32 v60,2013-10-21 05:59:00,
2013-10-21 01:00:00,44.0,43.5,29.88,NNE,22,0.0,19.0,98,0.00,,,-99.99,Weather View 32 v60,2013-10-21 06:00:00,
2013-10-21 01:29:00,45.0,40.1,29.19,NW,315,24.0,28.0,83,0.00,,,-99.99,Weather View 32 v60,2013-10-21 06:29:00,
2013-10-21 01:30:00,42.0,40.9,29.90,NNE,22,0.0,19.0,96,0.00,,,-99.99,Weather View 32 v60,2013-10-21 06:30:00,
2013-10-21 01:39:00,45.0,40.1,29.19,NW,315,24.0,28.0,83,0.00,,,-99.99,Weather View 32 v60,2013-10-21 06:39:00,
2013-10-21 01:59:00,43.0,37.2,29.21,WNW,292,11.0,28.0,80,0.00,,,-99.99,Weather View 32 v60,2013-10-21 06:59:00,
2013-10-21 02:00:00,41.0,38.9,29.92,North,0,0.0,19.0,92,0.00,,,-99.99,Weather View 32 v60,2013-10-21 07:00:00,
2013-10-21 02:29:00,42.0,36.6,29.22,WNW,292,7.0,25.0,81,0.00,,,-99.99,Weather View 32 v60,2013-10-21 07:29:00,
2013-10-21 02:30:00,42.0,36.6,29.22,WNW,292,7.0,25.0,81,0.00,,,-99.99,Weather View 32 v60,2013-10-21 07:30:00,
2013-10-21 02:59:00,42.0,36.6,29.23,WNW,292,9.0,24.0,81,0.00,,,-99.99,Weather View 32 v60,2013-10-21 07:59:00,
2013-10-21 03:00:00,39.0,36.0,29.94,NNW,338,0.0,11.0,89,0.00,,,-99.99,Weather View 32 v60,2013-10-21 08:00:00,
2013-10-21 03:29:00,42.0,36.6,29.24,WNW,292,9.0,21.0,81,0.00,,,-99.99,Weather View 32 v60,2013-10-21 08:29:00,
2013-10-21 03:30:00,42.0,36.6,29.24,WNW,292,9.0,21.0,81,0.00,,,-99.99,Weather View 32 v60,2013-10-21 08:30:00,
2013-10-21 03:59:00,42.0,37.2,29.24,WNW,292,8.0,18.0,83,0.00,,,-99.99,Weather View 32 v60,2013-10-21 08:59:00,
2013-10-21 04:00:00,39.0,36.0,29.96,NNE,22,0.0,1.0,89,0.00,,,-99.99,Weather View 32 v60,2013-10-21 09:00:00,
2013-10-21 04:29:00,41.0,36.5,29.25,NW,315,8.0,19.0,84,0.00,,,-99.99,Weather View 32 v60,2013-10-21 09:29:00,
2013-10-21 04:30:00,41.0,36.5,29.25,NW,315,8.0,19.0,84,0.00,,,-99.99,Weather View 32 v60,2013-10-21 09:30:00,
2013-10-21 04:59:00,40.0,37.3,29.26,NW,315,12.0,19.0,90,0.00,,,-99.99,Weather View 32 v60,2013-10-21 09:59:00,
2013-10-21 05:00:00,38.0,35.9,29.98,WNW,292,0.0,0.0,92,0.00,,,-99.99,Weather View 32 v60,2013-10-21 10:00:00,
2013-10-21 05:29:00,41.0,38.3,29.26,West,270,6.0,16.0,90,0.00,,,-99.99,Weather View 32 v60,2013-10-21 10:29:00,
2013-10-21 05:30:00,41.0,38.3,29.26,West,270,6.0,16.0,90,0.00,,,-99.99,Weather View 32 v60,2013-10-21 10:30:00,
2013-10-21 05:59:00,41.0,37.4,29.27,WNW,292,5.0,16.0,87,0.00,,,-99.99,Weather View 32 v60,2013-10-21 10:59:00,
2013-10-21 06:00:00,38.0,36.4,29.97,NNE,22,0.0,0.0,94,0.00,,,-99.99,Weather View 32 v60,2013-10-21 11:00:00,
2013-10-21 06:29:00,41.0,35.6,29.27,NW,315,5.0,14.0,81,0.00,,,-99.99,Weather View 32 v60,2013-10-21 11:29:00,
2013-10-21 06:30:00,41.0,35.6,29.27,NW,315,5.0,14.0,81,0.00,,,-99.99,Weather View 32 v60,2013-10-21 11:30:00,
2013-10-21 06:59:00,41.0,35.3,29.28,WNW,292,6.0,14.0,80,0.00,,,-99.99,Weather View 32 v60,2013-10-21 11:59:00,
2013-10-21 07:00:00,37.0,34.3,29.98,NE,45,0.0,0.0,90,0.00,,,-99.99,Weather View 32 v60,2013-10-21 12:00:00,
2013-10-21 07:29:00,40.0,34.9,29.30,WNW,292,4.0,14.0,82,0.00,,,-99.99,Weather View 32 v60,2013-10-21 12:29:00,
2013-10-21 07:30:00,40.0,34.9,29.30,WNW,292,4.0,14.0,82,0.00,,,-99.99,Weather View 32 v60,2013-10-21 12:30:00,
2013-10-21 07:59:00,40.0,35.9,29.33,WNW,292,6.0,17.0,85,0.00,,,-99.99,Weather View 32 v60,2013-10-21 12:59:00,
2013-10-21 08:00:00,38.0,35.6,30.00,NNW,338,0.0,0.0,91,0.00,,,-99.99,Weather View 32 v60,2013-10-21 13:00:00,
2013-10-21 08:29:00,40.0,35.2,29.35,NNW,338,4.0,17.0,83,0.00,,,-99.99,Weather View 32 v60,2013-10-21 13:29:00,
2013-10-21 08:30:00,40.0,35.2,29.35,NNW,338,4.0,17.0,83,0.00,,,-99.99,Weather View 32 v60,2013-10-21 13:30:00,
2013-10-21 08:59:00,40.0,34.9,29.36,WNW,292,3.0,15.0,82,0.00,,,-99.99,Weather View 32 v60,2013-10-21 13:59:00,
2013-10-21 09:00:00,39.0,35.7,30.00,NE,45,0.0,3.0,88,0.00,,,-99.99,Weather View 32 v60,2013-10-21 14:00:00,
2013-10-21 09:29:00,41.0,35.3,29.35,North,0,5.0,15.0,80,0.00,,,-99.99,Weather View 32 v60,2013-10-21 14:29:00,
2013-10-21 09:30:00,41.0,35.3,29.35,North,0,5.0,15.0,80,0.00,,,-99.99,Weather View 32 v60,2013-10-21 14:30:00,
2013-10-21 09:59:00,40.0,34.9,29.36,WNW,292,6.0,16.0,82,0.00,,,-99.99,Weather View 32 v60,2013-10-21 14:59:00,
2013-10-21 10:00:00,39.0,34.9,30.00,NNE,22,0.0,0.0,85,0.00,,,-99.99,Weather View 32 v60,2013-10-21 15:00:00,
2013-10-21 10:29:00,40.0,36.1,29.36,WNW,292,8.0,17.0,86,0.00,,,-99.99,Weather View 32 v60,2013-10-21 15:29:00,
2013-10-21 10:30:00,40.0,36.1,29.36,WNW,292,8.0,17.0,86,0.00,,,-99.99,Weather View 32 v60,2013-10-21 15:30:00,
2013-10-21 10:59:00,38.0,33.9,29.36,WNW,292,11.0,21.0,85,0.00,,,-99.99,Weather View 32 v60,2013-10-21 15:59:00,
2013-10-21 11:00:00,37.0,32.9,30.01,NNW,338,0.0,5.0,85,0.00,,,-99.99,Weather View 32 v60,2013-10-21 16:00:00,
2013-10-21 11:29:00,40.0,31.0,29.37,WNW,292,13.0,21.0,70,0.00,,,-99.99,Weather View 32 v60,2013-10-21 16:29:00,
2013-10-21 11:30:00,40.0,31.0,29.37,WNW,292,13.0,21.0,70,0.00,,,-99.99,Weather View 32 v60,2013-10-21 16:30:00,
2013-10-21 11:59:00,40.0,28.0,29.37,West,270,16.0,23.0,62,0.00,,,-99.99,Weather View 32 v60,2013-10-21 16:59:00,
2013-10-21 12:00:00,38.0,29.1,30.01,NNE,22,0.0,3.0,70,0.00,,,-99.99,Weather View 32 v60,2013-10-21 17:00:00,
2013-10-21 12:29:00,39.0,27.1,29.37,West,270,12.0,23.0,62,0.00,,,-99.99,Weather View 32 v60,2013-10-21 17:29:00,
2013-10-21 12:30:00,39.0,27.1,29.37,West,270,12.0,23.0,62,0.00,,,-99.99,Weather View 32 v60,2013-10-21 17:30:00,
2013-10-21 12:59:00,39.0,25.9,29.37,NW,315,9.0,23.0,59,0.00,,,-99.99,Weather View 32 v60,2013-10-21 17:59:00,
2013-10-21 13:00:00,37.0,27.1,30.00,NNE,22,0.0,16.0,67,0.00,,,-99.99,Weather View 32 v60,2013-10-21 18:00:00,
2013-10-21 13:29:00,39.0,25.5,29.37,NW,315,8.0,23.0,58,0.00,,,-99.99,Weather View 32 v60,2013-10-21 18:29:00,
2013-10-21 13:30:00,39.0,25.5,29.37,NW,315,8.0,23.0,58,0.00,,,-99.99,Weather View 32 v60,2013-10-21 18:30:00,
2013-10-21 13:59:00,39.0,25.5,29.36,WNW,292,6.0,23.0,58,0.00,,,-99.99,Weather View 32 v60,2013-10-21 18:59:00,
2013-10-21 14:00:00,37.0,26.7,29.99,North,0,0.0,3.0,66,0.00,,,-99.99,Weather View 32 v60,2013-10-21 19:00:00,
2013-10-21 14:29:00,39.0,23.3,29.36,West,270,11.0,20.0,53,0.00,,,-99.99,Weather View 32 v60,2013-10-21 19:29:00,
2013-10-21 14:30:00,39.0,23.3,29.36,West,270,11.0,20.0,53,0.00,,,-99.99,Weather View 32 v60,2013-10-21 19:30:00,
2013-10-21 14:59:00,39.0,22.8,29.36,WSW,248,13.0,21.0,52,0.00,,,-99.99,Weather View 32 v60,2013-10-21 19:59:00,
2013-10-21 15:00:00,38.0,24.9,29.99,NNE,22,0.0,5.0,59,0.00,,,-99.99,Weather View 32 v60,2013-10-21 20:00:00,
2013-10-21 15:29:00,39.0,22.8,29.37,WSW,248,9.0,22.0,52,0.00,,,-99.99,Weather View 32 v60,2013-10-21 20:29:00,
2013-10-21 15:30:00,39.0,22.8,29.37,WSW,248,9.0,22.0,52,0.00,,,-99.99,Weather View 32 v60,2013-10-21 20:30:00,
2013-10-21 15:59:00,40.0,23.8,29.36,WNW,292,7.0,26.0,52,0.00,,,-99.99,Weather View 32 v60,2013-10-21 20:59:00,
2013-10-21 16:00:00,37.0,25.2,30.00,NNW,338,0.0,9.0,62,0.00,,,-99.99,Weather View 32 v60,2013-10-21 21:00:00,
2013-10-21 16:29:00,40.0,24.2,29.37,West,270,13.0,26.0,53,0.00,,,-99.99,Weather View 32 v60,2013-10-21 21:29:00,
2013-10-21 16:30:00,40.0,24.2,29.37,West,270,13.0,26.0,53,0.00,,,-99.99,Weather View 32 v60,2013-10-21 21:30:00,
2013-10-21 16:59:00,39.0,24.6,29.36,West,270,10.0,26.0,56,0.00,,,-99.99,Weather View 32 v60,2013-10-21 21:59:00,
2013-10-21 17:00:00,37.0,26.3,30.01,North,0,0.0,1.0,65,0.00,,,-99.99,Weather View 32 v60,2013-10-21 22:00:00,
2013-10-21 17:29:00,39.0,25.5,29.38,West,270,4.0,19.0,58,0.00,,,-99.99,Weather View 32 v60,2013-10-21 22:29:00,
2013-10-21 17:30:00,39.0,25.5,29.38,West,270,4.0,19.0,58,0.00,,,-99.99,Weather View 32 v60,2013-10-21 22:30:00,
2013-10-21 17:59:00,39.0,25.5,29.37,West,270,4.0,14.0,58,0.00,,,-99.99,Weather View 32 v60,2013-10-21 22:59:00,
2013-10-21 18:00:00,36.0,26.1,30.02,West,270,0.0,1.0,67,0.00,,,-99.99,Weather View 32 v60,2013-10-21 23:00:00,
2013-10-21 18:29:00,39.0,25.0,29.38,WNW,292,6.0,14.0,57,0.00,,,-99.99,Weather View 32 v60,2013-10-21 23:29:00,
2013-10-21 18:30:00,39.0,25.0,29.38,WNW,292,6.0,14.0,57,0.00,,,-99.99,Weather View 32 v60,2013-10-21 23:30:00,
2013-10-21 18:59:00,39.0,24.6,29.38,NW,315,10.0,14.0,56,0.00,,,-99.99,Weather View 32 v60,2013-10-21 23:59:00,
2013-10-21 19:00:00,36.0,25.0,30.03,NNE,22,0.0,1.0,64,0.00,,,-99.99,Weather View 32 v60,2013-10-22 00:00:00,
2013-10-21 19:29:00,39.0,23.7,29.40,WNW,292,10.0,21.0,54,0.00,,,-99.99,Weather View 32 v60,2013-10-22 00:29:00,
2013-10-21 19:30:00,39.0,23.7,29.40,WNW,292,10.0,21.0,54,0.00,,,-99.99,Weather View 32 v60,2013-10-22 00:30:00,
2013-10-21 19:59:00,39.0,23.7,29.39,West,270,7.0,24.0,54,0.00,,,-99.99,Weather View 32 v60,2013-10-22 00:59:00,
2013-10-21 20:00:00,36.0,24.6,30.03,North,0,0.0,2.0,63,0.00,,,-99.99,Weather View 32 v60,2013-10-22 01:00:00,
2013-10-21 20:29:00,38.0,22.8,29.39,West,270,8.0,24.0,54,0.00,,,-99.99,Weather View 32 v60,2013-10-22 01:29:00,
2013-10-21 20:30:00,38.0,22.8,29.39,West,270,8.0,24.0,54,0.00,,,-99.99,Weather View 32 v60,2013-10-22 01:30:00,
2013-10-21 20:59:00,38.0,23.2,29.39,West,270,6.0,15.0,55,0.00,,,-99.99,Weather View 32 v60,2013-10-22 01:59:00,
2013-10-21 21:00:00,34.0,23.8,30.03,NNE,22,0.0,0.0,66,0.00,,,-99.99,Weather View 32 v60,2013-10-22 02:00:00,
2013-10-21 21:29:00,37.0,24.0,29.38,West,270,8.0,15.0,59,0.00,,,-99.99,Weather View 32 v60,2013-10-22 02:29:00,
2013-10-21 21:30:00,37.0,24.0,29.38,West,270,8.0,15.0,59,0.00,,,-99.99,Weather View 32 v60,2013-10-22 02:30:00,
2013-10-21 21:59:00,36.0,23.8,29.39,SW,225,3.0,14.0,61,0.00,,,-99.99,Weather View 32 v60,2013-10-22 02:59:00,
2013-10-21 22:00:00,33.0,23.9,30.03,NW,315,0.0,0.0,69,0.00,,,-99.99,Weather View 32 v60,2013-10-22 03:00:00,
2013-10-21 22:29:00,36.0,24.6,29.37,West,270,4.0,13.0,63,0.00,,,-99.99,Weather View 32 v60,2013-10-22 03:29:00,
2013-10-21 22:30:00,36.0,24.6,29.37,West,270,4.0,13.0,63,0.00,,,-99.99,Weather View 32 v60,2013-10-22 03:30:00,
2013-10-21 22:59:00,35.0,24.0,29.38,WSW,248,6.0,11.0,64,0.00,,,-99.99,Weather View 32 v60,2013-10-22 03:59:00,
2013-10-21 23:00:00,32.0,24.6,30.02,NW,315,0.0,0.0,74,0.00,,,-99.99,Weather View 32 v60,2013-10-22 04:00:00,
2013-10-21 23:29:00,35.0,24.8,29.37,WSW,248,6.0,14.0,66,0.00,,,-99.99,Weather View 32 v60,2013-10-22 04:29:00,
2013-10-21 23:30:00,35.0,24.8,29.37,WSW,248,6.0,14.0,66,0.00,,,-99.99,Weather View 32 v60,2013-10-22 04:30:00,
2013-10-21 23:59:00,34.0,24.5,29.38,SW,225,6.0,14.0,68,0.00,,,-99.99,Weather View 32 v60,2013-10-22 04:59:00,